sensor_id;sensor_type;location;lat;lon;timestamp;P1;durP1;ratioP1;P2;durP2;ratioP2
16426;SDS011;8322;-33.900;151.170;2022-07-29T00:01:26;3.72;;;1.30;;
16426;SDS011;8322;-33.900;151.170;2022-07-29T00:03:57;4.68;;;1.30;;
16426;SDS011;8322;-33.900;151.170;2022-07-29T00:06:27;6.15;;;1.20;;
16426;SDS011;8322;-33.900;151.170;2022-07-29T00:08:57;2.80;;;1.17;;
16426;SDS011;8322;-33.900;151.170;2022-07-29T00:11:26;2.17;;;0.93;;
16426;SDS011;8322;-33.900;151.170;2022-07-29T00:13:56;3.22;;;1.58;;
16426;SDS011;8322;-33.900;151.170;2022-07-29T00:16:26;2.13;;;1.30;;
16426;SDS011;8322;-33.900;151.170;2022-07-29T00:18:57;1.73;;;1.10;;
16426;SDS011;8322;-33.900;151.170;2022-07-29T00:21:27;4.20;;;1.50;;
16426;SDS011;8322;-33.900;151.170;2022-07-29T00:23:57;3.47;;;1.38;;
16426;SDS011;8322;-33.900;151.170;2022-07-29T00:26:26;3.78;;;1.55;;
16426;SDS011;8322;-33.900;151.170;2022-07-29T00:28:58;2.63;;;1.13;;
16426;SDS011;8322;-33.900;151.170;2022-07-29T00:31:28;1.50;;;0.90;;
16426;SDS011;8322;-33.900;151.170;2022-07-29T00:34:00;2.17;;;0.90;;
16426;SDS011;8322;-33.900;151.170;2022-07-29T00:36:29;1.98;;;0.90;;
16426;SDS011;8322;-33.900;151.170;2022-07-29T00:38:57;2.47;;;1.13;;
16426;SDS011;8322;-33.900;151.170;2022-07-29T00:41:27;1.77;;;1.00;;
16426;SDS011;8322;-33.900;151.170;2022-07-29T00:43:57;4.15;;;1.45;;
16426;SDS011;8322;-33.900;151.170;2022-07-29T00:46:26;3.47;;;1.60;;
16426;SDS011;8322;-33.900;151.170;2022-07-29T00:48:56;1.85;;;1.27;;
16426;SDS011;8322;-33.900;151.170;2022-07-29T00:51:28;2.72;;;1.40;;
16426;SDS011;8322;-33.900;151.170;2022-07-29T00:53:58;2.08;;;1.25;;
16426;SDS011;8322;-33.900;151.170;2022-07-29T00:56:27;3.03;;;1.80;;
16426;SDS011;8322;-33.900;151.170;2022-07-29T00:58:59;2.22;;;1.30;;
16426;SDS011;8322;-33.900;151.170;2022-07-29T01:01:29;2.70;;;1.30;;
16426;SDS011;8322;-33.900;151.170;2022-07-29T01:03:58;2.42;;;1.10;;
16426;SDS011;8322;-33.900;151.170;2022-07-29T01:06:30;1.98;;;0.90;;
16426;SDS011;8322;-33.900;151.170;2022-07-29T01:09:00;2.38;;;1.60;;
16426;SDS011;8322;-33.900;151.170;2022-07-29T01:11:29;1.45;;;0.93;;
16426;SDS011;8322;-33.900;151.170;2022-07-29T01:13:59;2.22;;;0.73;;
16426;SDS011;8322;-33.900;151.170;2022-07-29T01:16:30;2.63;;;1.08;;
16426;SDS011;8322;-33.900;151.170;2022-07-29T01:19:00;2.40;;;1.10;;
16426;SDS011;8322;-33.900;151.170;2022-07-29T01:21:40;1.02;;;0.88;;
16426;SDS011;8322;-33.900;151.170;2022-07-29T01:24:20;4.40;;;1.45;;
16426;SDS011;8322;-33.900;151.170;2022-07-29T01:26:57;2.17;;;1.25;;
16426;SDS011;8322;-33.900;151.170;2022-07-29T01:29:31;1.50;;;1.10;;
16426;SDS011;8322;-33.900;151.170;2022-07-29T01:32:02;2.38;;;1.00;;
16426;SDS011;8322;-33.900;151.170;2022-07-29T01:34:35;3.08;;;1.50;;
16426;SDS011;8322;-33.900;151.170;2022-07-29T01:37:08;1.52;;;1.02;;
16426;SDS011;8322;-33.900;151.170;2022-07-29T01:39:38;1.95;;;1.20;;
16426;SDS011;8322;-33.900;151.170;2022-07-29T01:42:12;2.35;;;1.20;;
16426;SDS011;8322;-33.900;151.170;2022-07-29T01:44:48;2.00;;;1.00;;
16426;SDS011;8322;-33.900;151.170;2022-07-29T01:47:20;1.65;;;1.10;;
16426;SDS011;8322;-33.900;151.170;2022-07-29T01:49:51;3.70;;;1.40;;
16426;SDS011;8322;-33.900;151.170;2022-07-29T01:52:23;2.67;;;1.15;;
16426;SDS011;8322;-33.900;151.170;2022-07-29T01:54:55;1.83;;;0.98;;
16426;SDS011;8322;-33.900;151.170;2022-07-29T01:57:27;2.17;;;0.90;;
16426;SDS011;8322;-33.900;151.170;2022-07-29T01:59:59;2.78;;;0.80;;
16426;SDS011;8322;-33.900;151.170;2022-07-29T02:02:30;6.13;;;1.30;;
16426;SDS011;8322;-33.900;151.170;2022-07-29T02:05:00;5.07;;;1.23;;
16426;SDS011;8322;-33.900;151.170;2022-07-29T02:07:31;2.90;;;1.10;;
16426;SDS011;8322;-33.900;151.170;2022-07-29T02:10:02;3.55;;;1.15;;
16426;SDS011;8322;-33.900;151.170;2022-07-29T02:12:32;2.22;;;0.93;;
16426;SDS011;8322;-33.900;151.170;2022-07-29T02:15:05;2.95;;;1.00;;
16426;SDS011;8322;-33.900;151.170;2022-07-29T02:17:37;3.38;;;1.00;;
16426;SDS011;8322;-33.900;151.170;2022-07-29T02:20:09;5.32;;;1.10;;
16426;SDS011;8322;-33.900;151.170;2022-07-29T02:22:39;2.17;;;1.08;;
16426;SDS011;8322;-33.900;151.170;2022-07-29T02:25:09;3.33;;;0.90;;
16426;SDS011;8322;-33.900;151.170;2022-07-29T02:27:40;4.47;;;1.40;;
16426;SDS011;8322;-33.900;151.170;2022-07-29T02:30:12;3.42;;;1.00;;
16426;SDS011;8322;-33.900;151.170;2022-07-29T02:32:42;2.22;;;1.15;;
16426;SDS011;8322;-33.900;151.170;2022-07-29T02:35:13;1.80;;;1.10;;
16426;SDS011;8322;-33.900;151.170;2022-07-29T02:37:44;3.30;;;1.20;;
16426;SDS011;8322;-33.900;151.170;2022-07-29T02:40:35;2.50;;;1.20;;
16426;SDS011;8322;-33.900;151.170;2022-07-29T02:43:06;3.75;;;1.20;;
16426;SDS011;8322;-33.900;151.170;2022-07-29T02:45:38;2.67;;;0.90;;
16426;SDS011;8322;-33.900;151.170;2022-07-29T02:48:09;2.22;;;0.88;;
16426;SDS011;8322;-33.900;151.170;2022-07-29T02:50:41;2.28;;;1.20;;
16426;SDS011;8322;-33.900;151.170;2022-07-29T02:53:14;2.33;;;0.90;;
16426;SDS011;8322;-33.900;151.170;2022-07-29T02:55:45;1.75;;;0.90;;
16426;SDS011;8322;-33.900;151.170;2022-07-29T02:58:17;2.78;;;0.82;;
16426;SDS011;8322;-33.900;151.170;2022-07-29T03:00:51;1.65;;;0.90;;
16426;SDS011;8322;-33.900;151.170;2022-07-29T03:03:22;2.67;;;1.30;;
16426;SDS011;8322;-33.900;151.170;2022-07-29T03:05:54;2.50;;;1.02;;
16426;SDS011;8322;-33.900;151.170;2022-07-29T03:08:24;2.90;;;0.80;;
16426;SDS011;8322;-33.900;151.170;2022-07-29T03:10:54;2.78;;;1.17;;
16426;SDS011;8322;-33.900;151.170;2022-07-29T03:13:24;1.58;;;0.93;;
16426;SDS011;8322;-33.900;151.170;2022-07-29T03:15:57;2.60;;;1.20;;
16426;SDS011;8322;-33.900;151.170;2022-07-29T03:18:27;1.70;;;0.90;;
16426;SDS011;8322;-33.900;151.170;2022-07-29T03:20:56;2.25;;;0.90;;
16426;SDS011;8322;-33.900;151.170;2022-07-29T03:23:26;7.13;;;1.10;;
16426;SDS011;8322;-33.900;151.170;2022-07-29T03:25:56;2.42;;;1.02;;
16426;SDS011;8322;-33.900;151.170;2022-07-29T03:28:26;2.78;;;1.00;;
16426;SDS011;8322;-33.900;151.170;2022-07-29T03:30:57;2.83;;;0.82;;
16426;SDS011;8322;-33.900;151.170;2022-07-29T03:33:27;3.88;;;1.00;;
16426;SDS011;8322;-33.900;151.170;2022-07-29T03:35:57;6.00;;;1.20;;
16426;SDS011;8322;-33.900;151.170;2022-07-29T03:38:28;2.65;;;0.80;;
16426;SDS011;8322;-33.900;151.170;2022-07-29T03:40:58;5.10;;;1.10;;
16426;SDS011;8322;-33.900;151.170;2022-07-29T03:43:30;4.00;;;1.00;;
16426;SDS011;8322;-33.900;151.170;2022-07-29T03:46:03;4.53;;;1.10;;
16426;SDS011;8322;-33.900;151.170;2022-07-29T03:48:33;2.15;;;0.75;;
16426;SDS011;8322;-33.900;151.170;2022-07-29T03:51:04;3.42;;;1.08;;
16426;SDS011;8322;-33.900;151.170;2022-07-29T03:53:33;4.22;;;0.90;;
16426;SDS011;8322;-33.900;151.170;2022-07-29T03:56:04;3.70;;;1.30;;
16426;SDS011;8322;-33.900;151.170;2022-07-29T03:58:35;4.10;;;1.20;;
16426;SDS011;8322;-33.900;151.170;2022-07-29T04:01:07;14.90;;;2.45;;
16426;SDS011;8322;-33.900;151.170;2022-07-29T04:03:37;10.35;;;1.38;;
16426;SDS011;8322;-33.900;151.170;2022-07-29T04:06:08;3.53;;;1.05;;
16426;SDS011;8322;-33.900;151.170;2022-07-29T04:08:37;3.47;;;1.10;;
16426;SDS011;8322;-33.900;151.170;2022-07-29T04:11:07;2.58;;;0.98;;
16426;SDS011;8322;-33.900;151.170;2022-07-29T04:13:37;3.40;;;1.25;;
16426;SDS011;8322;-33.900;151.170;2022-07-29T04:16:08;4.93;;;1.23;;
16426;SDS011;8322;-33.900;151.170;2022-07-29T04:18:38;2.13;;;0.90;;
16426;SDS011;8322;-33.900;151.170;2022-07-29T04:21:08;2.20;;;0.90;;
16426;SDS011;8322;-33.900;151.170;2022-07-29T04:23:38;3.28;;;1.10;;
16426;SDS011;8322;-33.900;151.170;2022-07-29T04:26:07;1.95;;;1.27;;
16426;SDS011;8322;-33.900;151.170;2022-07-29T04:28:37;5.68;;;1.40;;
16426;SDS011;8322;-33.900;151.170;2022-07-29T04:31:10;6.80;;;1.27;;
16426;SDS011;8322;-33.900;151.170;2022-07-29T04:33:39;5.38;;;1.20;;
16426;SDS011;8322;-33.900;151.170;2022-07-29T04:36:09;7.80;;;1.00;;
16426;SDS011;8322;-33.900;151.170;2022-07-29T04:38:39;5.18;;;1.35;;
16426;SDS011;8322;-33.900;151.170;2022-07-29T04:41:09;4.10;;;1.15;;
16426;SDS011;8322;-33.900;151.170;2022-07-29T04:43:39;3.75;;;1.23;;
16426;SDS011;8322;-33.900;151.170;2022-07-29T04:46:10;5.25;;;1.08;;
16426;SDS011;8322;-33.900;151.170;2022-07-29T04:48:40;5.53;;;1.30;;
16426;SDS011;8322;-33.900;151.170;2022-07-29T04:51:10;3.78;;;1.23;;
16426;SDS011;8322;-33.900;151.170;2022-07-29T04:53:39;4.28;;;1.20;;
16426;SDS011;8322;-33.900;151.170;2022-07-29T04:56:09;5.78;;;1.42;;
16426;SDS011;8322;-33.900;151.170;2022-07-29T04:58:39;7.35;;;1.33;;
16426;SDS011;8322;-33.900;151.170;2022-07-29T05:01:10;5.03;;;1.23;;
16426;SDS011;8322;-33.900;151.170;2022-07-29T05:03:40;10.73;;;1.20;;
16426;SDS011;8322;-33.900;151.170;2022-07-29T05:06:10;7.45;;;1.50;;
16426;SDS011;8322;-33.900;151.170;2022-07-29T05:08:40;3.65;;;1.10;;
16426;SDS011;8322;-33.900;151.170;2022-07-29T05:11:09;4.65;;;1.38;;
16426;SDS011;8322;-33.900;151.170;2022-07-29T05:13:39;4.82;;;1.20;;
16426;SDS011;8322;-33.900;151.170;2022-07-29T05:16:11;2.28;;;1.10;;
16426;SDS011;8322;-33.900;151.170;2022-07-29T05:18:41;3.50;;;0.98;;
16426;SDS011;8322;-33.900;151.170;2022-07-29T05:21:10;4.00;;;1.23;;
16426;SDS011;8322;-33.900;151.170;2022-07-29T05:23:40;2.08;;;1.08;;
16426;SDS011;8322;-33.900;151.170;2022-07-29T05:26:10;5.28;;;1.00;;
16426;SDS011;8322;-33.900;151.170;2022-07-29T05:28:40;5.25;;;1.08;;
16426;SDS011;8322;-33.900;151.170;2022-07-29T05:31:11;4.40;;;1.20;;
16426;SDS011;8322;-33.900;151.170;2022-07-29T05:33:41;2.65;;;1.30;;
16426;SDS011;8322;-33.900;151.170;2022-07-29T05:36:11;2.85;;;1.00;;
16426;SDS011;8322;-33.900;151.170;2022-07-29T05:38:41;4.53;;;1.38;;
16426;SDS011;8322;-33.900;151.170;2022-07-29T05:41:11;5.95;;;1.42;;
16426;SDS011;8322;-33.900;151.170;2022-07-29T05:43:40;6.57;;;1.20;;
16426;SDS011;8322;-33.900;151.170;2022-07-29T05:46:12;5.38;;;1.48;;
16426;SDS011;8322;-33.900;151.170;2022-07-29T05:48:42;5.30;;;1.15;;
16426;SDS011;8322;-33.900;151.170;2022-07-29T05:51:11;5.13;;;1.10;;
16426;SDS011;8322;-33.900;151.170;2022-07-29T05:53:41;5.60;;;1.20;;
16426;SDS011;8322;-33.900;151.170;2022-07-29T05:56:11;3.63;;;0.90;;
16426;SDS011;8322;-33.900;151.170;2022-07-29T05:58:40;3.35;;;0.90;;
16426;SDS011;8322;-33.900;151.170;2022-07-29T06:01:12;5.43;;;1.08;;
16426;SDS011;8322;-33.900;151.170;2022-07-29T06:03:42;4.28;;;1.10;;
16426;SDS011;8322;-33.900;151.170;2022-07-29T06:06:11;4.90;;;1.45;;
16426;SDS011;8322;-33.900;151.170;2022-07-29T06:08:41;5.38;;;1.30;;
16426;SDS011;8322;-33.900;151.170;2022-07-29T06:11:11;3.97;;;1.00;;
16426;SDS011;8322;-33.900;151.170;2022-07-29T06:13:41;6.78;;;1.30;;
16426;SDS011;8322;-33.900;151.170;2022-07-29T06:16:12;5.25;;;1.45;;
16426;SDS011;8322;-33.900;151.170;2022-07-29T06:18:42;6.22;;;1.30;;
16426;SDS011;8322;-33.900;151.170;2022-07-29T06:21:12;4.22;;;1.48;;
16426;SDS011;8322;-33.900;151.170;2022-07-29T06:23:41;3.72;;;1.25;;
16426;SDS011;8322;-33.900;151.170;2022-07-29T06:26:11;3.45;;;1.15;;
16426;SDS011;8322;-33.900;151.170;2022-07-29T06:28:41;3.15;;;1.27;;
16426;SDS011;8322;-33.900;151.170;2022-07-29T06:31:12;2.85;;;1.02;;
16426;SDS011;8322;-33.900;151.170;2022-07-29T06:33:42;4.82;;;1.20;;
16426;SDS011;8322;-33.900;151.170;2022-07-29T06:36:12;4.20;;;1.63;;
16426;SDS011;8322;-33.900;151.170;2022-07-29T06:38:42;4.70;;;1.30;;
16426;SDS011;8322;-33.900;151.170;2022-07-29T06:41:12;4.13;;;1.15;;
16426;SDS011;8322;-33.900;151.170;2022-07-29T06:43:42;6.72;;;1.30;;
16426;SDS011;8322;-33.900;151.170;2022-07-29T06:46:15;4.88;;;1.67;;
16426;SDS011;8322;-33.900;151.170;2022-07-29T06:48:45;2.40;;;1.13;;
16426;SDS011;8322;-33.900;151.170;2022-07-29T06:51:15;2.75;;;1.25;;
16426;SDS011;8322;-33.900;151.170;2022-07-29T06:53:45;2.20;;;1.17;;
16426;SDS011;8322;-33.900;151.170;2022-07-29T06:56:14;3.05;;;1.10;;
16426;SDS011;8322;-33.900;151.170;2022-07-29T06:58:44;6.25;;;1.40;;
16426;SDS011;8322;-33.900;151.170;2022-07-29T07:01:16;4.30;;;1.42;;
16426;SDS011;8322;-33.900;151.170;2022-07-29T07:03:46;2.17;;;1.08;;
16426;SDS011;8322;-33.900;151.170;2022-07-29T07:06:15;3.90;;;1.25;;
16426;SDS011;8322;-33.900;151.170;2022-07-29T07:08:45;3.90;;;1.20;;
16426;SDS011;8322;-33.900;151.170;2022-07-29T07:11:15;2.83;;;1.40;;
16426;SDS011;8322;-33.900;151.170;2022-07-29T07:13:45;2.00;;;1.00;;
16426;SDS011;8322;-33.900;151.170;2022-07-29T07:16:16;3.83;;;1.60;;
16426;SDS011;8322;-33.900;151.170;2022-07-29T07:18:46;3.40;;;1.38;;
16426;SDS011;8322;-33.900;151.170;2022-07-29T07:21:16;4.55;;;1.42;;
16426;SDS011;8322;-33.900;151.170;2022-07-29T07:23:45;3.58;;;1.30;;
16426;SDS011;8322;-33.900;151.170;2022-07-29T07:26:15;5.03;;;1.50;;
16426;SDS011;8322;-33.900;151.170;2022-07-29T07:28:45;3.78;;;1.80;;
16426;SDS011;8322;-33.900;151.170;2022-07-29T07:31:17;4.63;;;1.50;;
16426;SDS011;8322;-33.900;151.170;2022-07-29T07:33:46;5.95;;;1.48;;
16426;SDS011;8322;-33.900;151.170;2022-07-29T07:36:16;3.63;;;1.55;;
16426;SDS011;8322;-33.900;151.170;2022-07-29T07:38:46;5.47;;;2.17;;
16426;SDS011;8322;-33.900;151.170;2022-07-29T07:41:16;5.07;;;3.75;;
16426;SDS011;8322;-33.900;151.170;2022-07-29T07:43:45;5.40;;;2.95;;
16426;SDS011;8322;-33.900;151.170;2022-07-29T07:46:17;6.97;;;4.32;;
16426;SDS011;8322;-33.900;151.170;2022-07-29T07:48:47;17.48;;;10.85;;
16426;SDS011;8322;-33.900;151.170;2022-07-29T07:51:18;7.60;;;4.55;;
16426;SDS011;8322;-33.900;151.170;2022-07-29T07:53:49;4.55;;;2.92;;
16426;SDS011;8322;-33.900;151.170;2022-07-29T07:56:19;6.15;;;2.75;;
16426;SDS011;8322;-33.900;151.170;2022-07-29T07:58:49;3.47;;;2.30;;
16426;SDS011;8322;-33.900;151.170;2022-07-29T08:01:20;4.40;;;1.92;;
16426;SDS011;8322;-33.900;151.170;2022-07-29T08:03:50;6.25;;;2.10;;
16426;SDS011;8322;-33.900;151.170;2022-07-29T08:06:20;3.38;;;1.40;;
16426;SDS011;8322;-33.900;151.170;2022-07-29T08:08:51;4.70;;;2.50;;
16426;SDS011;8322;-33.900;151.170;2022-07-29T08:11:20;7.63;;;3.30;;
16426;SDS011;8322;-33.900;151.170;2022-07-29T08:13:50;4.72;;;2.85;;
16426;SDS011;8322;-33.900;151.170;2022-07-29T08:16:22;8.82;;;5.80;;
16426;SDS011;8322;-33.900;151.170;2022-07-29T08:18:51;13.82;;;8.65;;
16426;SDS011;8322;-33.900;151.170;2022-07-29T08:21:23;10.40;;;7.55;;
16426;SDS011;8322;-33.900;151.170;2022-07-29T08:23:53;9.98;;;6.57;;
16426;SDS011;8322;-33.900;151.170;2022-07-29T08:26:42;15.18;;;9.57;;
16426;SDS011;8322;-33.900;151.170;2022-07-29T08:29:12;13.77;;;9.60;;
16426;SDS011;8322;-33.900;151.170;2022-07-29T08:31:44;16.50;;;10.38;;
16426;SDS011;8322;-33.900;151.170;2022-07-29T08:34:14;11.38;;;8.23;;
16426;SDS011;8322;-33.900;151.170;2022-07-29T08:36:43;14.98;;;10.65;;
16426;SDS011;8322;-33.900;151.170;2022-07-29T08:39:13;14.32;;;8.07;;
16426;SDS011;8322;-33.900;151.170;2022-07-29T08:41:43;15.77;;;10.02;;
16426;SDS011;8322;-33.900;151.170;2022-07-29T08:44:13;8.20;;;5.13;;
16426;SDS011;8322;-33.900;151.170;2022-07-29T08:46:46;11.50;;;7.00;;
16426;SDS011;8322;-33.900;151.170;2022-07-29T08:49:16;11.90;;;7.28;;
16426;SDS011;8322;-33.900;151.170;2022-07-29T08:51:46;8.70;;;4.90;;
16426;SDS011;8322;-33.900;151.170;2022-07-29T08:54:16;11.05;;;5.10;;
16426;SDS011;8322;-33.900;151.170;2022-07-29T08:56:48;7.55;;;5.10;;
16426;SDS011;8322;-33.900;151.170;2022-07-29T08:59:19;5.97;;;4.25;;
16426;SDS011;8322;-33.900;151.170;2022-07-29T09:01:51;8.50;;;5.28;;
16426;SDS011;8322;-33.900;151.170;2022-07-29T09:04:21;6.68;;;3.45;;
16426;SDS011;8322;-33.900;151.170;2022-07-29T09:06:53;4.93;;;2.75;;
16426;SDS011;8322;-33.900;151.170;2022-07-29T09:09:23;4.85;;;2.80;;
16426;SDS011;8322;-33.900;151.170;2022-07-29T09:11:53;5.72;;;2.17;;
16426;SDS011;8322;-33.900;151.170;2022-07-29T09:14:23;5.22;;;2.20;;
16426;SDS011;8322;-33.900;151.170;2022-07-29T09:16:55;4.75;;;2.10;;
16426;SDS011;8322;-33.900;151.170;2022-07-29T09:19:26;4.90;;;1.80;;
16426;SDS011;8322;-33.900;151.170;2022-07-29T09:21:56;4.78;;;1.80;;
16426;SDS011;8322;-33.900;151.170;2022-07-29T09:24:25;4.38;;;1.92;;
16426;SDS011;8322;-33.900;151.170;2022-07-29T09:26:55;3.17;;;2.17;;
16426;SDS011;8322;-33.900;151.170;2022-07-29T09:29:25;3.92;;;2.15;;
16426;SDS011;8322;-33.900;151.170;2022-07-29T09:31:57;5.13;;;2.63;;
16426;SDS011;8322;-33.900;151.170;2022-07-29T09:34:27;5.78;;;2.00;;
16426;SDS011;8322;-33.900;151.170;2022-07-29T09:36:57;5.15;;;2.00;;
16426;SDS011;8322;-33.900;151.170;2022-07-29T09:39:28;6.60;;;2.20;;
16426;SDS011;8322;-33.900;151.170;2022-07-29T09:41:58;8.35;;;3.28;;
16426;SDS011;8322;-33.900;151.170;2022-07-29T09:44:28;5.57;;;2.15;;
16426;SDS011;8322;-33.900;151.170;2022-07-29T09:47:11;6.13;;;2.70;;
16426;SDS011;8322;-33.900;151.170;2022-07-29T09:49:50;4.63;;;2.03;;
16426;SDS011;8322;-33.900;151.170;2022-07-29T09:52:20;5.90;;;2.50;;
16426;SDS011;8322;-33.900;151.170;2022-07-29T09:54:50;7.30;;;2.75;;
16426;SDS011;8322;-33.900;151.170;2022-07-29T09:57:23;6.45;;;3.33;;
16426;SDS011;8322;-33.900;151.170;2022-07-29T09:59:56;5.95;;;3.00;;
16426;SDS011;8322;-33.900;151.170;2022-07-29T10:02:33;5.88;;;2.95;;
16426;SDS011;8322;-33.900;151.170;2022-07-29T10:05:03;7.10;;;2.75;;
16426;SDS011;8322;-33.900;151.170;2022-07-29T10:07:45;8.50;;;2.90;;
16426;SDS011;8322;-33.900;151.170;2022-07-29T10:10:20;6.78;;;3.15;;
16426;SDS011;8322;-33.900;151.170;2022-07-29T10:12:50;9.05;;;3.20;;
16426;SDS011;8322;-33.900;151.170;2022-07-29T10:15:21;7.78;;;3.33;;
16426;SDS011;8322;-33.900;151.170;2022-07-29T10:17:53;6.25;;;3.55;;
16426;SDS011;8322;-33.900;151.170;2022-07-29T10:20:24;7.25;;;3.60;;
16426;SDS011;8322;-33.900;151.170;2022-07-29T10:22:54;7.93;;;4.35;;
16426;SDS011;8322;-33.900;151.170;2022-07-29T10:25:25;8.00;;;4.30;;
16426;SDS011;8322;-33.900;151.170;2022-07-29T10:27:54;7.80;;;3.95;;
16426;SDS011;8322;-33.900;151.170;2022-07-29T10:30:24;8.38;;;4.40;;
16426;SDS011;8322;-33.900;151.170;2022-07-29T10:33:05;8.25;;;3.50;;
16426;SDS011;8322;-33.900;151.170;2022-07-29T10:35:44;6.35;;;3.60;;
16426;SDS011;8322;-33.900;151.170;2022-07-29T10:41:10;7.10;;;3.85;;
16426;SDS011;8322;-33.900;151.170;2022-07-29T10:44:08;7.28;;;4.75;;
16426;SDS011;8322;-33.900;151.170;2022-07-29T10:46:38;7.93;;;4.72;;
16426;SDS011;8322;-33.900;151.170;2022-07-29T10:49:11;8.85;;;4.88;;
16426;SDS011;8322;-33.900;151.170;2022-07-29T10:51:54;7.57;;;5.07;;
16426;SDS011;8322;-33.900;151.170;2022-07-29T10:54:42;8.05;;;4.93;;
16426;SDS011;8322;-33.900;151.170;2022-07-29T10:57:14;9.80;;;5.50;;
16426;SDS011;8322;-33.900;151.170;2022-07-29T10:59:45;8.05;;;4.10;;
16426;SDS011;8322;-33.900;151.170;2022-07-29T11:05:04;6.15;;;3.72;;
16426;SDS011;8322;-33.900;151.170;2022-07-29T11:07:35;10.75;;;4.15;;
16426;SDS011;8322;-33.900;151.170;2022-07-29T11:10:20;9.60;;;3.80;;
16426;SDS011;8322;-33.900;151.170;2022-07-29T11:12:50;7.97;;;4.00;;
16426;SDS011;8322;-33.900;151.170;2022-07-29T11:15:20;6.70;;;3.80;;
16426;SDS011;8322;-33.900;151.170;2022-07-29T11:18:06;6.65;;;3.70;;
16426;SDS011;8322;-33.900;151.170;2022-07-29T11:20:38;6.20;;;3.33;;
16426;SDS011;8322;-33.900;151.170;2022-07-29T11:23:19;5.97;;;3.33;;
16426;SDS011;8322;-33.900;151.170;2022-07-29T11:28:37;8.63;;;3.47;;
16426;SDS011;8322;-33.900;151.170;2022-07-29T11:31:08;8.20;;;3.95;;
16426;SDS011;8322;-33.900;151.170;2022-07-29T11:33:39;9.95;;;4.07;;
16426;SDS011;8322;-33.900;151.170;2022-07-29T11:36:12;8.40;;;4.28;;
16426;SDS011;8322;-33.900;151.170;2022-07-29T11:38:41;7.90;;;4.10;;
16426;SDS011;8322;-33.900;151.170;2022-07-29T11:41:23;7.15;;;3.78;;
16426;SDS011;8322;-33.900;151.170;2022-07-29T11:43:55;9.65;;;3.90;;
16426;SDS011;8322;-33.900;151.170;2022-07-29T11:46:44;6.60;;;3.95;;
16426;SDS011;8322;-33.900;151.170;2022-07-29T11:49:18;7.95;;;3.33;;
16426;SDS011;8322;-33.900;151.170;2022-07-29T11:51:54;8.38;;;4.00;;
16426;SDS011;8322;-33.900;151.170;2022-07-29T11:54:24;9.43;;;3.88;;
16426;SDS011;8322;-33.900;151.170;2022-07-29T11:56:54;6.03;;;3.80;;
16426;SDS011;8322;-33.900;151.170;2022-07-29T11:59:23;5.13;;;3.33;;
16426;SDS011;8322;-33.900;151.170;2022-07-29T12:01:53;7.57;;;3.10;;
16426;SDS011;8322;-33.900;151.170;2022-07-29T12:04:23;7.10;;;3.50;;
16426;SDS011;8322;-33.900;151.170;2022-07-29T12:06:55;10.77;;;3.20;;
16426;SDS011;8322;-33.900;151.170;2022-07-29T12:09:25;6.00;;;3.08;;
16426;SDS011;8322;-33.900;151.170;2022-07-29T12:11:56;4.60;;;2.45;;
16426;SDS011;8322;-33.900;151.170;2022-07-29T12:14:26;5.53;;;2.17;;
16426;SDS011;8322;-33.900;151.170;2022-07-29T12:16:56;6.72;;;2.50;;
16426;SDS011;8322;-33.900;151.170;2022-07-29T12:19:26;6.05;;;2.60;;
16426;SDS011;8322;-33.900;151.170;2022-07-29T12:21:58;4.93;;;2.33;;
16426;SDS011;8322;-33.900;151.170;2022-07-29T12:24:32;3.67;;;1.42;;
16426;SDS011;8322;-33.900;151.170;2022-07-29T12:27:11;7.75;;;1.30;;
16426;SDS011;8322;-33.900;151.170;2022-07-29T12:29:41;4.38;;;1.10;;
16426;SDS011;8322;-33.900;151.170;2022-07-29T12:32:11;5.30;;;1.20;;
16426;SDS011;8322;-33.900;151.170;2022-07-29T12:34:40;4.70;;;1.23;;
16426;SDS011;8322;-33.900;151.170;2022-07-29T12:37:12;5.85;;;1.17;;
16426;SDS011;8322;-33.900;151.170;2022-07-29T12:39:42;5.45;;;2.00;;
16426;SDS011;8322;-33.900;151.170;2022-07-29T12:42:12;3.15;;;1.30;;
16426;SDS011;8322;-33.900;151.170;2022-07-29T12:44:45;3.60;;;1.23;;
16426;SDS011;8322;-33.900;151.170;2022-07-29T12:47:15;4.03;;;1.08;;
16426;SDS011;8322;-33.900;151.170;2022-07-29T12:49:46;2.17;;;1.13;;
16426;SDS011;8322;-33.900;151.170;2022-07-29T12:52:27;3.85;;;1.30;;
16426;SDS011;8322;-33.900;151.170;2022-07-29T12:54:57;2.05;;;1.30;;
16426;SDS011;8322;-33.900;151.170;2022-07-29T12:57:27;3.83;;;1.30;;
16426;SDS011;8322;-33.900;151.170;2022-07-29T13:00:02;5.47;;;1.38;;
16426;SDS011;8322;-33.900;151.170;2022-07-29T13:02:33;3.10;;;1.20;;
16426;SDS011;8322;-33.900;151.170;2022-07-29T13:05:04;1.90;;;1.40;;
16426;SDS011;8322;-33.900;151.170;2022-07-29T13:07:36;3.35;;;1.75;;
16426;SDS011;8322;-33.900;151.170;2022-07-29T13:10:15;3.50;;;1.38;;
16426;SDS011;8322;-33.900;151.170;2022-07-29T13:15:29;2.80;;;1.50;;
16426;SDS011;8322;-33.900;151.170;2022-07-29T13:17:59;3.67;;;1.98;;
16426;SDS011;8322;-33.900;151.170;2022-07-29T13:20:29;6.18;;;2.85;;
16426;SDS011;8322;-33.900;151.170;2022-07-29T13:23:00;4.40;;;2.67;;
16426;SDS011;8322;-33.900;151.170;2022-07-29T13:25:31;4.20;;;2.78;;
16426;SDS011;8322;-33.900;151.170;2022-07-29T13:28:06;6.88;;;2.60;;
16426;SDS011;8322;-33.900;151.170;2022-07-29T13:30:37;6.53;;;3.08;;
16426;SDS011;8322;-33.900;151.170;2022-07-29T13:33:08;5.30;;;2.70;;
16426;SDS011;8322;-33.900;151.170;2022-07-29T13:35:38;5.40;;;3.05;;
16426;SDS011;8322;-33.900;151.170;2022-07-29T13:38:10;5.00;;;3.10;;
16426;SDS011;8322;-33.900;151.170;2022-07-29T13:40:40;5.50;;;3.22;;
16426;SDS011;8322;-33.900;151.170;2022-07-29T13:43:10;7.22;;;3.13;;
16426;SDS011;8322;-33.900;151.170;2022-07-29T13:45:39;5.60;;;3.25;;
16426;SDS011;8322;-33.900;151.170;2022-07-29T13:48:09;6.30;;;3.60;;
16426;SDS011;8322;-33.900;151.170;2022-07-29T13:50:39;5.85;;;3.17;;
16426;SDS011;8322;-33.900;151.170;2022-07-29T13:53:10;8.05;;;4.68;;
16426;SDS011;8322;-33.900;151.170;2022-07-29T13:55:40;8.63;;;4.40;;
16426;SDS011;8322;-33.900;151.170;2022-07-29T13:58:10;7.35;;;4.00;;
16426;SDS011;8322;-33.900;151.170;2022-07-29T14:00:39;8.38;;;4.15;;
16426;SDS011;8322;-33.900;151.170;2022-07-29T14:03:09;5.68;;;3.40;;
16426;SDS011;8322;-33.900;151.170;2022-07-29T14:05:39;7.85;;;3.55;;
16426;SDS011;8322;-33.900;151.170;2022-07-29T14:08:10;8.15;;;3.13;;
16426;SDS011;8322;-33.900;151.170;2022-07-29T14:10:40;7.35;;;3.10;;
16426;SDS011;8322;-33.900;151.170;2022-07-29T14:13:10;6.53;;;3.40;;
16426;SDS011;8322;-33.900;151.170;2022-07-29T14:15:39;5.30;;;3.15;;
16426;SDS011;8322;-33.900;151.170;2022-07-29T14:18:09;7.53;;;3.40;;
16426;SDS011;8322;-33.900;151.170;2022-07-29T14:20:39;6.20;;;4.00;;
16426;SDS011;8322;-33.900;151.170;2022-07-29T14:23:10;7.25;;;3.10;;
16426;SDS011;8322;-33.900;151.170;2022-07-29T14:25:40;6.28;;;3.17;;
16426;SDS011;8322;-33.900;151.170;2022-07-29T14:28:09;6.13;;;3.17;;
16426;SDS011;8322;-33.900;151.170;2022-07-29T14:30:39;5.85;;;2.88;;
16426;SDS011;8322;-33.900;151.170;2022-07-29T14:33:09;10.05;;;3.60;;
16426;SDS011;8322;-33.900;151.170;2022-07-29T14:35:39;9.10;;;3.28;;
16426;SDS011;8322;-33.900;151.170;2022-07-29T14:38:11;9.20;;;3.25;;
16426;SDS011;8322;-33.900;151.170;2022-07-29T14:40:41;5.57;;;3.50;;
16426;SDS011;8322;-33.900;151.170;2022-07-29T14:43:11;4.65;;;2.95;;
16426;SDS011;8322;-33.900;151.170;2022-07-29T14:45:40;6.25;;;3.13;;
16426;SDS011;8322;-33.900;151.170;2022-07-29T14:48:10;7.95;;;3.22;;
16426;SDS011;8322;-33.900;151.170;2022-07-29T14:50:40;5.85;;;3.40;;
16426;SDS011;8322;-33.900;151.170;2022-07-29T14:53:11;5.50;;;3.53;;
16426;SDS011;8322;-33.900;151.170;2022-07-29T14:55:41;6.30;;;3.72;;